createdAt,value
2022-08-04T00:02:13.406Z,2.90
2022-08-04T00:04:47.497Z,3.27
2022-08-04T00:07:21.750Z,2.90
2022-08-04T00:10:09.239Z,3.17
2022-08-04T00:12:45.073Z,3.00
2022-08-04T00:15:15.040Z,3.10
2022-08-04T00:17:54.777Z,3.00
2022-08-04T00:20:21.866Z,2.97
2022-08-04T00:22:49.403Z,3.33
2022-08-04T00:25:15.938Z,3.50
2022-08-04T00:27:43.603Z,3.07
2022-08-04T00:30:10.377Z,3.10
2022-08-04T00:32:39.547Z,3.20
2022-08-04T00:35:08.260Z,3.40
2022-08-04T00:37:37.121Z,3.37
2022-08-04T00:40:13.927Z,3.40
2022-08-04T00:43:03.163Z,2.80
2022-08-04T00:46:15.694Z,3.20
2022-08-04T00:48:44.400Z,3.13
2022-08-04T00:51:13.545Z,3.90
2022-08-04T00:53:58.026Z,3.60
2022-08-04T00:56:56.713Z,3.20
2022-08-04T00:59:33.928Z,3.53
2022-08-04T01:02:14.129Z,3.00
2022-08-04T01:04:43.284Z,3.20
2022-08-04T01:07:37.107Z,3.13
2022-08-04T01:13:22.526Z,3.57
2022-08-04T01:15:56.479Z,3.70
2022-08-04T01:18:39.930Z,3.50
2022-08-04T01:21:42.638Z,3.87
2022-08-04T01:24:35.321Z,3.70
2022-08-04T01:27:43.760Z,3.40
2022-08-04T01:30:10.428Z,3.93
2022-08-04T01:32:39.101Z,3.53
2022-08-04T01:35:15.299Z,3.50
2022-08-04T01:38:18.322Z,3.27
2022-08-04T01:40:53.026Z,3.50
2022-08-04T01:43:20.484Z,4.00
2022-08-04T01:45:51.397Z,3.70
2022-08-04T01:48:24.930Z,3.83
2022-08-04T01:50:53.792Z,4.00
2022-08-04T01:53:21.813Z,3.70
2022-08-04T01:55:54.139Z,4.40
2022-08-04T01:58:23.873Z,3.67
2022-08-04T02:00:57.969Z,3.67
2022-08-04T02:03:24.496Z,4.20
2022-08-04T02:06:36.052Z,3.43
2022-08-04T02:09:20.876Z,4.00
2022-08-04T02:12:26.024Z,3.97
2022-08-04T02:15:27.727Z,3.13
2022-08-04T02:18:02.718Z,4.00
2022-08-04T02:20:37.203Z,4.10
2022-08-04T02:23:07.884Z,4.37
2022-08-04T02:25:43.754Z,3.90
2022-08-04T02:28:22.381Z,4.00
2022-08-04T02:31:06.787Z,4.77
2022-08-04T02:33:43.182Z,4.37
2022-08-04T02:36:14.156Z,4.70
2022-08-04T02:38:49.714Z,3.93
2022-08-04T02:41:18.024Z,3.70
2022-08-04T02:43:51.703Z,3.47
2022-08-04T02:46:21.261Z,3.97
2022-08-04T02:48:49.783Z,4.53
2022-08-04T02:51:20.055Z,4.40
2022-08-04T02:53:49.506Z,5.03
2022-08-04T02:56:20.208Z,4.10
2022-08-04T02:58:51.666Z,4.30
2022-08-04T03:01:18.373Z,4.07
2022-08-04T03:04:06.171Z,4.20
2022-08-04T03:06:44.413Z,3.63
2022-08-04T03:09:28.730Z,4.33
2022-08-04T03:12:13.936Z,3.43
2022-08-04T03:15:34.995Z,4.07
2022-08-04T03:18:39.117Z,3.73
2022-08-04T03:21:29.955Z,3.17
2022-08-04T03:24:19.620Z,3.77
2022-08-04T03:27:00.092Z,4.03
2022-08-04T03:29:59.010Z,3.93
2022-08-04T03:32:43.872Z,4.00
2022-08-04T03:35:40.027Z,3.90
2022-08-04T03:38:31.284Z,3.50
2022-08-04T03:41:06.513Z,3.90
2022-08-04T03:43:56.838Z,3.17
2022-08-04T03:46:45.045Z,4.73
2022-08-04T03:49:47.979Z,4.00
2022-08-04T03:52:48.460Z,4.33
2022-08-04T03:55:36.723Z,3.83
2022-08-04T03:58:18.279Z,4.00
2022-08-04T04:01:02.765Z,3.40
2022-08-04T04:03:41.362Z,3.40
2022-08-04T04:06:29.580Z,4.10
2022-08-04T04:09:20.696Z,3.97
2022-08-04T04:11:57.682Z,4.50
2022-08-04T04:14:46.091Z,3.83
2022-08-04T04:17:45.509Z,3.43
2022-08-04T04:20:25.499Z,4.13
2022-08-04T04:23:25.669Z,3.43
2022-08-04T04:26:06.470Z,3.57
2022-08-04T04:28:43.472Z,3.73
2022-08-04T04:31:46.160Z,4.20
2022-08-04T04:34:48.485Z,4.03
2022-08-04T04:37:22.005Z,3.87
2022-08-04T04:40:32.764Z,4.20
2022-08-04T04:43:17.464Z,4.63
2022-08-04T04:46:10.383Z,3.87
2022-08-04T04:48:53.209Z,4.33
2022-08-04T04:51:31.532Z,3.90
2022-08-04T04:54:16.011Z,4.13
2022-08-04T04:57:05.203Z,3.73
2022-08-04T04:59:35.564Z,4.50
2022-08-04T05:02:23.368Z,4.10
2022-08-04T05:05:26.780Z,5.00
2022-08-04T05:08:43.182Z,5.27
2022-08-04T05:11:33.274Z,3.90
2022-08-04T05:14:44.455Z,4.10
2022-08-04T05:17:53.991Z,3.43
2022-08-04T05:20:25.748Z,3.83
2022-08-04T05:23:02.015Z,3.70
2022-08-04T05:25:37.545Z,3.83
2022-08-04T05:28:10.772Z,3.60
2022-08-04T05:30:48.400Z,4.10
2022-08-04T05:33:19.092Z,4.23
2022-08-04T05:36:17.854Z,4.33
2022-08-04T05:38:39.403Z,4.03
2022-08-04T05:41:07.510Z,4.27
2022-08-04T05:43:35.533Z,4.00
2022-08-04T05:46:02.892Z,4.20
2022-08-04T05:48:32.290Z,3.80
2022-08-04T05:51:01.202Z,3.73
2022-08-04T05:53:29.150Z,4.43
2022-08-04T05:55:58.750Z,3.90
2022-08-04T05:58:29.429Z,4.10
2022-08-04T06:00:56.810Z,4.20
2022-08-04T06:03:24.983Z,4.50
2022-08-04T06:05:52.101Z,4.07
2022-08-04T06:08:19.453Z,3.90
2022-08-04T06:10:48.186Z,4.10
2022-08-04T06:13:47.883Z,3.87
2022-08-04T06:16:08.221Z,4.17
2022-08-04T06:19:59.982Z,3.93
2022-08-04T06:21:38.733Z,4.40
2022-08-04T06:24:10.597Z,3.90
2022-08-04T06:26:38.503Z,4.40
2022-08-04T06:29:05.540Z,4.40
2022-08-04T06:32:31.125Z,5.30
2022-08-04T06:34:32.524Z,4.60
2022-08-04T06:36:59.607Z,3.60
2022-08-04T06:39:28.254Z,4.77
2022-08-04T06:42:17.178Z,4.50
2022-08-04T06:44:44.309Z,4.40
2022-08-04T06:47:13.898Z,3.40
2022-08-04T06:51:28.024Z,3.77
2022-08-04T06:52:30.948Z,4.37
2022-08-04T06:54:58.997Z,4.60
2022-08-04T06:57:27.872Z,3.83
2022-08-04T07:00:00.679Z,3.27
2022-08-04T07:02:31.361Z,4.00
2022-08-04T07:04:58.120Z,3.53
2022-08-04T07:07:33.955Z,4.20
2022-08-04T07:10:04.256Z,4.23
2022-08-04T07:12:32.398Z,4.00
2022-08-04T07:14:59.424Z,4.23
2022-08-04T07:17:28.836Z,4.10
2022-08-04T07:20:01.854Z,3.80
2022-08-04T07:22:28.688Z,4.40
2022-08-04T07:24:57.069Z,4.40
2022-08-04T07:27:48.324Z,3.63
2022-08-04T07:30:11.524Z,3.90
2022-08-04T07:32:38.665Z,4.00
2022-08-04T07:35:07.148Z,3.57
2022-08-04T07:37:40.158Z,3.73
2022-08-04T07:40:07.656Z,4.10
2022-08-04T07:42:34.955Z,3.70
2022-08-04T07:45:01.548Z,4.63
2022-08-04T07:47:28.391Z,3.57
2022-08-04T07:49:57.697Z,3.90
2022-08-04T07:52:26.384Z,4.20
2022-08-04T07:54:54.502Z,3.60
2022-08-04T07:57:40.235Z,4.27
2022-08-04T08:00:08.697Z,3.50
2022-08-04T08:02:36.468Z,4.03
2022-08-04T08:05:03.241Z,5.50
2022-08-04T08:07:29.740Z,3.40
2022-08-04T08:09:56.466Z,4.00
2022-08-04T08:12:37.745Z,4.17
2022-08-04T08:15:13.303Z,4.00
2022-08-04T08:17:58.664Z,4.07
2022-08-04T08:20:28.872Z,3.67
2022-08-04T08:22:56.563Z,3.57
2022-08-04T08:25:23.331Z,3.60
2022-08-04T08:27:56.465Z,3.73
2022-08-04T08:30:24.265Z,4.20
2022-08-04T08:32:51.026Z,3.57
2022-08-04T08:35:18.348Z,3.37
2022-08-04T08:37:56.431Z,3.30
2022-08-04T08:41:07.291Z,3.90
2022-08-04T08:44:06.105Z,3.70
2022-08-04T08:47:01.401Z,3.87
2022-08-04T08:50:02.979Z,3.60
2022-08-04T08:52:57.703Z,3.90
2022-08-04T08:55:42.653Z,3.93
2022-08-04T08:58:35.735Z,4.00
2022-08-04T09:01:12.207Z,3.60
2022-08-04T09:04:03.500Z,3.90
2022-08-04T09:06:42.700Z,3.60
2022-08-04T09:09:22.168Z,4.00
2022-08-04T09:12:15.879Z,4.53
2022-08-04T09:15:04.196Z,3.90
2022-08-04T09:17:40.787Z,4.20
2022-08-04T09:20:36.999Z,4.63
2022-08-04T09:23:31.413Z,4.13
2022-08-04T09:26:16.714Z,5.23
2022-08-04T09:29:03.375Z,4.47
2022-08-04T09:31:51.624Z,4.47
2022-08-04T09:34:43.996Z,4.07
2022-08-04T09:37:17.021Z,5.37
2022-08-04T09:40:01.771Z,4.50
2022-08-04T09:42:48.219Z,4.57
2022-08-04T09:45:42.400Z,5.30
2022-08-04T09:48:15.190Z,3.57
2022-08-04T09:50:49.765Z,4.20
2022-08-04T09:53:35.625Z,4.47
2022-08-04T09:56:03.498Z,4.00
2022-08-04T09:58:50.517Z,3.87
2022-08-04T10:01:23.420Z,3.70
2022-08-04T10:03:54.955Z,4.30
2022-08-04T10:06:49.099Z,3.63
2022-08-04T10:09:27.907Z,3.50
2022-08-04T10:11:57.340Z,3.10
2022-08-04T10:14:49.098Z,3.50
2022-08-04T10:17:43.620Z,3.13
2022-08-04T10:20:56.419Z,3.37
2022-08-04T10:23:56.755Z,3.60
2022-08-04T10:26:48.699Z,3.77
2022-08-04T10:29:22.528Z,3.77
2022-08-04T10:31:59.135Z,4.00
2022-08-04T10:34:29.925Z,3.57
2022-08-04T10:37:02.381Z,3.90
2022-08-04T10:40:10.686Z,4.17
2022-08-04T10:42:47.082Z,3.77
2022-08-04T10:45:25.144Z,3.40
2022-08-04T10:48:07.305Z,3.40
2022-08-04T10:50:43.039Z,3.20
2022-08-04T10:53:20.376Z,3.43
2022-08-04T10:56:06.324Z,2.93
2022-08-04T10:58:47.835Z,2.70
2022-08-04T11:02:00.007Z,2.63
2022-08-04T11:04:15.871Z,5.30
2022-08-04T11:06:56.385Z,3.27
2022-08-04T11:09:23.106Z,2.93
2022-08-04T11:12:15.606Z,3.40
2022-08-04T11:14:58.269Z,3.50
2022-08-04T11:17:29.964Z,2.70
2022-08-04T11:20:34.146Z,3.10
2022-08-04T11:23:05.736Z,2.30
2022-08-04T11:25:56.240Z,2.37
2022-08-04T11:28:37.246Z,2.27
2022-08-04T11:31:07.857Z,2.33
2022-08-04T11:33:58.585Z,2.80
2022-08-04T11:37:00.748Z,2.40
2022-08-04T11:39:42.404Z,1.97
2022-08-04T11:42:26.409Z,3.37
2022-08-04T11:45:05.799Z,2.30
2022-08-04T11:48:00.628Z,2.03
2022-08-04T11:50:45.068Z,2.10
2022-08-04T11:53:19.251Z,1.90
2022-08-04T11:56:06.908Z,2.10
2022-08-04T11:58:35.594Z,1.97
2022-08-04T12:01:21.793Z,1.60
2022-08-04T12:04:13.493Z,1.60
2022-08-04T12:07:29.998Z,1.60
2022-08-04T12:10:12.645Z,1.67
2022-08-04T12:12:46.259Z,1.63
2022-08-04T12:15:31.008Z,1.77
2022-08-04T12:18:16.013Z,2.40
2022-08-04T12:20:49.550Z,2.17
2022-08-04T12:23:23.148Z,2.27
2022-08-04T12:25:54.599Z,2.77
2022-08-04T12:31:40.327Z,1.50
2022-08-04T12:34:15.890Z,1.93
2022-08-04T12:36:58.839Z,1.70
2022-08-04T12:39:27.433Z,1.50
2022-08-04T12:42:03.252Z,1.50
2022-08-04T12:44:39.413Z,1.60
2022-08-04T12:47:27.132Z,1.57
2022-08-04T12:50:00.877Z,1.63
2022-08-04T12:55:20.266Z,1.67
2022-08-04T12:57:49.448Z,2.00
2022-08-04T13:00:30.550Z,1.73
2022-08-04T13:03:06.278Z,1.20
2022-08-04T13:05:38.885Z,1.60
2022-08-04T13:08:07.101Z,1.40
2022-08-04T13:10:39.399Z,1.83
2022-08-04T13:13:11.597Z,1.57
2022-08-04T13:15:47.660Z,2.03
2022-08-04T13:18:29.293Z,1.93
2022-08-04T13:21:20.414Z,1.60
2022-08-04T13:24:09.790Z,1.60
2022-08-04T13:26:43.349Z,2.37
2022-08-04T13:29:22.011Z,2.10
2022-08-04T13:32:09.901Z,2.60
2022-08-04T13:34:40.178Z,2.77
2022-08-04T13:37:08.388Z,2.50
2022-08-04T13:39:36.035Z,2.50
2022-08-04T13:42:08.265Z,2.33
2022-08-04T13:44:38.329Z,2.30
2022-08-04T13:47:16.699Z,2.90
2022-08-04T13:50:15.625Z,2.83
2022-08-04T13:52:44.027Z,2.80
2022-08-04T13:55:29.961Z,2.97
2022-08-04T13:58:01.116Z,3.87
2022-08-04T14:00:40.255Z,3.30
2022-08-04T14:03:23.281Z,3.33
2022-08-04T14:06:14.581Z,2.70
2022-08-04T14:08:51.054Z,3.93
2022-08-04T14:12:06.521Z,3.90
2022-08-04T14:14:28.669Z,3.13
2022-08-04T14:17:19.909Z,2.67
2022-08-04T14:19:50.094Z,2.60
2022-08-04T14:22:25.644Z,3.20
2022-08-04T14:25:15.520Z,3.00
2022-08-04T14:27:54.774Z,3.37
2022-08-04T14:30:25.349Z,2.40
2022-08-04T14:34:01.616Z,2.40
2022-08-04T14:35:59.509Z,2.20
2022-08-04T14:38:56.439Z,1.77
2022-08-04T14:41:29.754Z,2.27
2022-08-04T14:43:58.632Z,2.43
2022-08-04T14:46:30.468Z,2.20
2022-08-04T14:49:12.021Z,3.10
2022-08-04T14:51:41.869Z,2.80
2022-08-04T14:54:15.643Z,2.70
2022-08-04T14:56:53.117Z,2.70
2022-08-04T14:59:19.721Z,3.20
2022-08-04T15:02:00.913Z,2.93
2022-08-04T15:04:31.382Z,2.70
2022-08-04T15:06:58.775Z,2.40
2022-08-04T15:09:25.565Z,2.43
2022-08-04T15:11:52.215Z,3.03
2022-08-04T15:14:36.477Z,2.30
2022-08-04T15:17:12.184Z,2.57
2022-08-04T15:19:55.968Z,2.60
2022-08-04T15:22:22.675Z,2.90
2022-08-04T15:24:55.253Z,3.80
2022-08-04T15:27:26.583Z,3.27
2022-08-04T15:30:00.645Z,3.60
2022-08-04T15:32:33.041Z,3.50
2022-08-04T15:35:35.121Z,3.73
2022-08-04T15:38:09.187Z,2.90
2022-08-04T15:40:56.299Z,3.00
2022-08-04T15:43:41.328Z,2.70
2022-08-04T15:46:42.652Z,3.37
2022-08-04T15:48:54.225Z,4.07
2022-08-04T15:51:31.767Z,3.20
2022-08-04T15:54:23.442Z,3.27
2022-08-04T15:57:02.001Z,3.00
2022-08-04T16:00:00.082Z,3.17
2022-08-04T16:02:32.412Z,2.80
2022-08-04T16:05:18.045Z,2.63
2022-08-04T16:08:08.405Z,3.03
2022-08-04T16:10:36.114Z,3.23
2022-08-04T16:13:08.637Z,3.87
2022-08-04T16:15:48.879Z,3.93
2022-08-04T16:18:30.547Z,3.77
2022-08-04T16:20:59.332Z,3.10
2022-08-04T16:23:55.118Z,3.60
2022-08-04T16:26:45.313Z,2.90
2022-08-04T16:29:32.467Z,3.10
2022-08-04T16:32:20.384Z,2.80
2022-08-04T16:34:55.649Z,3.83
2022-08-04T16:37:37.826Z,6.37
2022-08-04T16:40:34.590Z,4.20
2022-08-04T16:43:13.862Z,3.43
2022-08-04T16:45:54.758Z,3.20
2022-08-04T16:48:26.935Z,2.73
2022-08-04T16:51:31.454Z,2.57
2022-08-04T16:54:05.487Z,4.43
2022-08-04T16:56:34.737Z,5.00
2022-08-04T16:59:12.859Z,2.80
2022-08-04T17:01:51.025Z,4.00
2022-08-04T17:04:17.976Z,2.90
2022-08-04T17:06:48.522Z,2.90
2022-08-04T17:09:17.220Z,3.00
2022-08-04T17:11:45.144Z,2.87
2022-08-04T17:14:12.023Z,3.00
2022-08-04T17:16:41.551Z,2.37
2022-08-04T17:19:20.425Z,3.47
2022-08-04T17:21:58.864Z,3.00
2022-08-04T17:24:29.212Z,2.93
2022-08-04T17:26:57.750Z,2.90
2022-08-04T17:32:17.284Z,3.47
2022-08-04T17:34:48.556Z,3.20
2022-08-04T17:40:22.730Z,3.40
2022-08-04T17:44:02.950Z,3.47
2022-08-04T17:46:28.450Z,2.67
2022-08-04T17:49:10.044Z,3.17
2022-08-04T17:52:05.047Z,2.83
2022-08-04T17:54:39.040Z,3.17
2022-08-04T17:57:20.639Z,3.60
2022-08-04T18:00:00.026Z,3.03
2022-08-04T18:02:33.029Z,2.97
2022-08-04T18:05:06.888Z,4.87
2022-08-04T18:08:37.749Z,3.47
2022-08-04T18:10:55.182Z,4.10
2022-08-04T18:13:27.183Z,3.63
2022-08-04T18:16:04.350Z,2.97
2022-08-04T18:18:31.012Z,2.70
2022-08-04T18:20:59.720Z,2.70
2022-08-04T18:23:31.437Z,2.50
2022-08-04T18:25:58.731Z,2.47
2022-08-04T18:28:26.645Z,2.50
2022-08-04T18:30:55.234Z,2.70
2022-08-04T18:33:39.489Z,2.77
2022-08-04T18:36:34.732Z,2.77
2022-08-04T18:38:55.716Z,2.57
2022-08-04T18:41:25.066Z,2.30
2022-08-04T18:43:56.036Z,3.10
2022-08-04T18:46:26.966Z,3.10
2022-08-04T18:48:53.853Z,3.67
2022-08-04T18:51:23.548Z,3.63
2022-08-04T18:53:59.091Z,4.23
2022-08-04T18:56:29.969Z,5.10
2022-08-04T18:59:01.217Z,3.63
2022-08-04T19:01:30.120Z,3.80
2022-08-04T19:04:33.587Z,3.60
2022-08-04T19:07:28.831Z,3.30
2022-08-04T19:09:52.214Z,4.00
2022-08-04T19:12:26.816Z,3.00
2022-08-04T19:15:08.126Z,3.23
2022-08-04T19:17:53.456Z,2.60
2022-08-04T19:20:26.322Z,3.13
2022-08-04T19:26:02.783Z,3.30
2022-08-04T19:28:31.699Z,3.07
2022-08-04T19:31:01.461Z,2.70
2022-08-04T19:33:55.227Z,3.03
2022-08-04T19:36:17.051Z,2.90
2022-08-04T19:39:04.652Z,3.63
2022-08-04T19:42:04.445Z,3.53
2022-08-04T19:44:24.900Z,3.60
2022-08-04T19:46:56.025Z,3.70
2022-08-04T19:50:05.198Z,2.87
2022-08-04T19:52:13.545Z,3.17
2022-08-04T19:54:41.210Z,2.57
2022-08-04T19:57:08.134Z,2.93
2022-08-04T19:59:35.500Z,3.00
2022-08-04T20:02:01.969Z,2.50
2022-08-04T20:04:28.506Z,3.00
2022-08-04T20:06:57.806Z,2.67
2022-08-04T20:09:27.073Z,3.03
2022-08-04T20:11:57.748Z,3.03
2022-08-04T20:14:32.569Z,2.80
2022-08-04T20:17:01.434Z,3.30
2022-08-04T20:19:27.900Z,4.30
2022-08-04T20:21:56.932Z,2.90
2022-08-04T20:24:39.860Z,3.30
2022-08-04T20:27:21.960Z,3.03
2022-08-04T20:29:50.592Z,3.60
2022-08-04T20:32:22.577Z,3.10
2022-08-04T20:34:51.423Z,3.30
2022-08-04T20:37:19.289Z,2.87
2022-08-04T20:39:54.641Z,2.97
2022-08-04T20:42:27.006Z,3.13
2022-08-04T20:44:55.451Z,2.53
2022-08-04T20:47:22.121Z,4.20
2022-08-04T20:49:49.071Z,3.47
2022-08-04T20:52:20.361Z,3.47
2022-08-04T20:54:48.408Z,3.60
2022-08-04T20:57:16.799Z,3.00
2022-08-04T20:59:57.771Z,3.30
2022-08-04T21:02:27.085Z,2.70
2022-08-04T21:04:53.699Z,3.60
2022-08-04T21:07:21.817Z,2.83
2022-08-04T21:09:50.889Z,3.20
2022-08-04T21:12:35.744Z,3.33
2022-08-04T21:15:14.478Z,3.70
2022-08-04T21:17:57.959Z,3.07
2022-08-04T21:20:30.092Z,3.20
2022-08-04T21:23:01.632Z,3.57
2022-08-04T21:25:28.912Z,3.00
2022-08-04T21:27:55.550Z,3.07
2022-08-04T21:30:26.587Z,3.20
2022-08-04T21:35:40.589Z,3.77
2022-08-04T21:40:54.613Z,4.07
2022-08-04T21:43:23.561Z,4.70
2022-08-04T21:45:54.856Z,3.90
2022-08-04T21:48:21.381Z,4.40
2022-08-04T21:50:50.472Z,3.70
2022-08-04T21:53:19.856Z,3.60
2022-08-04T21:56:06.816Z,4.27
2022-08-04T21:58:34.419Z,3.70
2022-08-04T22:01:00.888Z,3.97
2022-08-04T22:03:53.894Z,3.13
2022-08-04T22:06:28.211Z,3.60
2022-08-04T22:08:56.253Z,3.43
2022-08-04T22:11:26.034Z,3.63
2022-08-04T22:14:11.131Z,3.30
2022-08-04T22:16:39.793Z,3.63
2022-08-04T22:19:06.837Z,3.87
2022-08-04T22:21:39.208Z,3.63
2022-08-04T22:24:13.654Z,3.10
2022-08-04T22:26:40.810Z,4.27
2022-08-04T22:29:07.408Z,3.80
2022-08-04T22:31:56.360Z,4.30
2022-08-04T22:34:24.245Z,4.40
2022-08-04T22:36:50.862Z,4.00
2022-08-04T22:39:19.039Z,4.43
2022-08-04T22:41:48.895Z,4.23
2022-08-04T22:44:33.038Z,4.10
2022-08-04T22:46:59.587Z,3.73
2022-08-04T22:49:31.467Z,4.53
2022-08-04T22:51:58.556Z,3.90
2022-08-04T22:54:26.017Z,4.17
2022-08-04T22:56:55.196Z,4.50
2022-08-04T22:59:23.421Z,3.57
2022-08-04T23:01:59.180Z,3.90
2022-08-04T23:04:29.699Z,4.30
2022-08-04T23:06:56.265Z,4.23
2022-08-04T23:09:49.090Z,4.07
2022-08-04T23:12:27.385Z,4.00
2022-08-04T23:14:58.633Z,4.00
2022-08-04T23:17:27.295Z,3.57
2022-08-04T23:19:57.406Z,3.97
2022-08-04T23:22:41.187Z,4.03
2022-08-04T23:25:15.922Z,3.70
2022-08-04T23:27:50.997Z,4.10
2022-08-04T23:30:24.631Z,4.07
2022-08-04T23:32:56.532Z,4.10
2022-08-04T23:35:23.546Z,4.70
2022-08-04T23:37:57.769Z,4.63
2022-08-04T23:40:33.051Z,4.27
2022-08-04T23:43:12.186Z,4.83
2022-08-04T23:46:08.273Z,4.27
2022-08-04T23:48:36.818Z,4.63
2022-08-04T23:51:14.703Z,4.30
2022-08-04T23:54:02.037Z,5.17
2022-08-04T23:56:29.566Z,5.23
2022-08-04T23:58:56.315Z,5.40
